Time;durP1;ratioP1;P1;durP2;ratioP2;P2;SDS_P1;SDS_P2;PMS_P1;PMS_P2;Temp;Humidity;BMP_temperature;BMP_pressure;BME280_temperature;BME280_humidity;BME280_pressure;Samples;Min_cycle;Max_cycle;Signal;HPM_P1;HPM_P2
2023/08/14 00:02:18;;;;;;;4.07;3.67;;;19.30;99.90;;;;;;5082594;28;20452;-71
2023/08/14 00:04:46;;;;;;;3.77;3.47;;;19.30;99.90;;;;;;5089279;28;20497;-71
2023/08/14 00:07:12;;;;;;;4.30;3.90;;;19.30;99.90;;;;;;5088988;28;20464;-71
2023/08/14 00:09:39;;;;;;;4.10;3.70;;;19.30;99.90;;;;;;5073507;28;20485;-71
2023/08/14 00:12:06;;;;;;;3.57;3.27;;;19.30;99.90;;;;;;5085899;28;20547;-71
2023/08/14 00:14:33;;;;;;;4.70;3.50;;;19.40;99.90;;;;;;5076961;28;20541;-71
2023/08/14 00:17:00;;;;;;;3.20;2.90;;;19.30;99.90;;;;;;5070138;28;20451;-71
2023/08/14 00:19:27;;;;;;;3.67;3.33;;;19.40;99.90;;;;;;5083601;28;20482;-71
2023/08/14 00:21:55;;;;;;;4.10;3.07;;;19.40;99.90;;;;;;5085445;28;20983;-71
2023/08/14 00:24:21;;;;;;;3.43;3.13;;;19.40;99.90;;;;;;5068911;28;20453;-71
2023/08/14 00:26:48;;;;;;;3.40;3.10;;;19.40;99.90;;;;;;5077242;28;20949;-71
2023/08/14 00:29:15;;;;;;;3.93;3.43;;;19.40;99.90;;;;;;5088245;28;20479;-71
2023/08/14 00:31:42;;;;;;;4.40;3.30;;;19.40;99.90;;;;;;5089132;28;20837;-71
2023/08/14 00:34:08;;;;;;;3.60;3.30;;;19.40;99.90;;;;;;5088490;28;20467;-71
2023/08/14 00:36:35;;;;;;;3.30;3.00;;;19.40;99.90;;;;;;5088752;28;20456;-70
2023/08/14 00:39:03;;;;;;;3.60;3.30;;;19.50;99.90;;;;;;5088473;28;21022;-71
2023/08/14 00:41:31;;;;;;;3.60;3.30;;;19.50;99.90;;;;;;5089109;28;20452;-71
2023/08/14 00:43:57;;;;;;;3.80;3.00;;;19.50;99.90;;;;;;5087421;28;20460;-71
2023/08/14 00:46:25;;;;;;;2.87;2.63;;;19.50;99.90;;;;;;5088995;28;20474;-70
2023/08/14 00:48:52;;;;;;;4.30;3.57;;;19.50;99.90;;;;;;5071449;28;20474;-70
2023/08/14 00:51:21;;;;;;;3.50;2.80;;;19.50;99.90;;;;;;5068647;28;20461;-70
2023/08/14 00:53:49;;;;;;;3.37;3.07;;;19.60;99.90;;;;;;5068406;28;20455;-70
2023/08/14 00:56:19;;;;;;;3.50;3.17;;;19.60;99.90;;;;;;5068538;28;20457;-71
2023/08/14 00:58:46;;;;;;;3.70;3.40;;;19.60;99.90;;;;;;5068415;28;20560;-70
2023/08/14 01:01:13;;;;;;;3.87;3.13;;;19.60;99.90;;;;;;5068284;28;20457;-70
2023/08/14 01:03:40;;;;;;;3.43;3.13;;;19.60;99.90;;;;;;5071728;28;20467;-70
2023/08/14 01:06:07;;;;;;;4.50;3.30;;;19.60;99.90;;;;;;5071047;28;20480;-70
2023/08/14 01:08:35;;;;;;;3.63;3.33;;;19.60;99.90;;;;;;5072119;28;20487;-70
2023/08/14 01:11:12;;;;;;;3.40;3.10;;;19.70;99.90;;;;;;5071748;28;20458;-70
2023/08/14 01:13:47;;;;;;;3.33;3.03;;;19.70;99.90;;;;;;5146409;22;21000;-72
2023/08/14 01:16:19;;;;;;;3.93;3.40;;;19.70;99.90;;;;;;5061190;28;20463;-72
2023/08/14 01:18:47;;;;;;;3.80;3.30;;;19.70;99.90;;;;;;5052454;28;20992;-72
2023/08/14 01:21:36;;;;;;;3.70;3.37;;;19.70;99.90;;;;;;5052708;28;20455;-72
2023/08/14 01:24:14;;;;;;;3.73;3.43;;;19.70;99.90;;;;;;5052681;28;20456;-72
2023/08/14 01:26:43;;;;;;;3.50;3.20;;;19.80;99.90;;;;;;5052445;28;20509;-72
2023/08/14 01:29:09;;;;;;;5.10;4.60;;;19.80;99.90;;;;;;5052170;28;20471;-72
2023/08/14 01:31:36;;;;;;;4.17;3.83;;;19.90;99.90;;;;;;5052527;28;20530;-72
2023/08/14 01:34:03;;;;;;;5.10;4.60;;;19.90;99.90;;;;;;5052479;28;20886;-72
2023/08/14 01:36:36;;;;;;;4.23;3.70;;;20.00;99.90;;;;;;5065677;28;20884;-72
2023/08/14 01:39:08;;;;;;;3.90;3.60;;;20.00;99.90;;;;;;5072184;28;20872;-72
2023/08/14 01:41:42;;;;;;;4.50;4.10;;;20.00;99.90;;;;;;5072455;28;20846;-72
2023/08/14 01:44:11;;;;;;;3.77;3.47;;;20.00;99.90;;;;;;5072416;28;20460;-72
2023/08/14 01:46:42;;;;;;;3.77;3.47;;;20.00;99.90;;;;;;5072016;28;20472;-72
2023/08/14 01:49:11;;;;;;;5.20;3.30;;;20.10;99.90;;;;;;5071751;28;20884;-72
2023/08/14 01:51:39;;;;;;;4.67;3.90;;;20.00;99.90;;;;;;5072240;28;20469;-72
2023/08/14 01:54:06;;;;;;;3.00;2.80;;;20.00;99.90;;;;;;5072164;28;20458;-72
2023/08/14 01:56:32;;;;;;;3.30;3.00;;;20.00;99.90;;;;;;5071937;28;20452;-72
2023/08/14 01:59:00;;;;;;;2.90;2.50;;;20.00;99.90;;;;;;5062786;28;20474;-72
2023/08/14 02:01:27;;;;;;;2.90;2.47;;;20.00;99.90;;;;;;5052523;28;20456;-72
2023/08/14 02:03:54;;;;;;;3.30;3.00;;;20.00;99.90;;;;;;5052129;28;20458;-72
2023/08/14 02:06:20;;;;;;;3.03;2.73;;;20.00;99.90;;;;;;5051584;28;20973;-72
2023/08/14 02:08:47;;;;;;;2.97;2.77;;;20.00;99.90;;;;;;5051690;28;20477;-72
2023/08/14 02:11:14;;;;;;;2.50;2.30;;;19.90;99.90;;;;;;5051752;28;20811;-72
2023/08/14 02:13:40;;;;;;;3.80;2.70;;;19.90;99.90;;;;;;5050776;28;20469;-72
2023/08/14 02:16:08;;;;;;;2.83;2.50;;;19.90;99.90;;;;;;5051582;28;20842;-72
2023/08/14 02:18:35;;;;;;;6.50;2.90;;;19.90;99.90;;;;;;5051497;28;20482;-72
2023/08/14 02:21:02;;;;;;;3.17;2.90;;;19.90;99.90;;;;;;5051436;28;20965;-72
2023/08/14 02:23:29;;;;;;;2.80;2.50;;;19.90;99.90;;;;;;5051567;28;20455;-72
2023/08/14 02:25:56;;;;;;;2.83;2.13;;;19.90;99.90;;;;;;5051580;28;20489;-72
2023/08/14 02:28:22;;;;;;;3.43;2.63;;;19.90;99.90;;;;;;5051037;28;20481;-72
2023/08/14 02:30:49;;;;;;;3.63;2.63;;;19.90;99.90;;;;;;5051053;28;20485;-72
2023/08/14 02:33:17;;;;;;;2.57;2.37;;;19.80;99.90;;;;;;5053667;28;20462;-72
2023/08/14 02:35:44;;;;;;;3.00;2.80;;;19.80;99.90;;;;;;5063403;28;20464;-72
2023/08/14 02:38:11;;;;;;;3.00;2.70;;;19.80;99.90;;;;;;5071478;28;20455;-72
2023/08/14 02:40:38;;;;;;;3.10;2.40;;;19.70;99.90;;;;;;5071107;28;20458;-71
2023/08/14 02:43:05;;;;;;;3.30;2.40;;;19.70;99.90;;;;;;5071104;28;20901;-71
2023/08/14 02:45:32;;;;;;;3.73;2.47;;;19.60;99.90;;;;;;5070801;28;20482;-71
2023/08/14 02:47:59;;;;;;;2.80;2.60;;;19.60;99.90;;;;;;5071032;28;20844;-70
2023/08/14 02:50:27;;;;;;;2.90;2.70;;;19.50;99.90;;;;;;5070570;28;20460;-71
2023/08/14 02:52:53;;;;;;;3.83;3.53;;;19.50;99.90;;;;;;5071281;28;20455;-71
2023/08/14 02:55:20;;;;;;;3.03;2.50;;;19.40;99.90;;;;;;5070880;28;20834;-71
2023/08/14 02:57:47;;;;;;;2.80;2.40;;;19.40;99.90;;;;;;5070865;28;20452;-71
2023/08/14 03:00:14;;;;;;;3.30;2.50;;;19.40;99.90;;;;;;5070373;28;20479;-71
2023/08/14 03:02:41;;;;;;;5.30;2.60;;;19.40;99.90;;;;;;5070854;28;20464;-71
2023/08/14 03:05:08;;;;;;;3.00;2.43;;;19.40;99.90;;;;;;5070675;28;20451;-71
2023/08/14 03:07:36;;;;;;;3.80;2.80;;;19.40;99.90;;;;;;5070579;28;20463;-71
2023/08/14 03:10:03;;;;;;;3.30;2.77;;;19.40;99.90;;;;;;5070624;28;20478;-71
2023/08/14 03:12:30;;;;;;;3.13;2.83;;;19.40;99.90;;;;;;5050633;28;20453;-71
2023/08/14 03:14:56;;;;;;;2.57;2.37;;;19.40;99.90;;;;;;5050748;28;20463;-71
2023/08/14 03:17:23;;;;;;;7.40;2.60;;;19.40;99.90;;;;;;5050395;28;20461;-71
2023/08/14 03:19:50;;;;;;;3.30;2.70;;;19.40;99.90;;;;;;5050424;28;20478;-71
2023/08/14 03:22:16;;;;;;;2.70;2.50;;;19.40;99.90;;;;;;5050587;28;20468;-71
2023/08/14 03:24:44;;;;;;;2.80;2.60;;;19.40;99.90;;;;;;5050381;28;20452;-71
2023/08/14 03:27:11;;;;;;;5.60;2.67;;;19.40;99.90;;;;;;5049732;28;20482;-71
2023/08/14 03:29:39;;;;;;;2.60;2.17;;;19.40;99.90;;;;;;5049403;28;20477;-71
2023/08/14 03:32:06;;;;;;;2.80;2.60;;;19.40;99.90;;;;;;5058792;28;20488;-70
2023/08/14 03:34:32;;;;;;;2.53;2.33;;;19.30;99.90;;;;;;5059880;28;20457;-70
2023/08/14 03:36:59;;;;;;;2.37;2.10;;;19.30;99.90;;;;;;5060555;28;20460;-69
2023/08/14 03:39:26;;;;;;;5.70;3.20;;;19.20;99.90;;;;;;5059863;28;21241;-70
2023/08/14 03:41:54;;;;;;;3.10;2.90;;;19.30;99.90;;;;;;5060392;28;20459;-69
2023/08/14 03:44:20;;;;;;;2.90;2.70;;;19.20;99.90;;;;;;5067150;28;20454;-69
2023/08/14 03:46:47;;;;;;;4.40;2.80;;;19.20;99.90;;;;;;5069325;28;20488;-70
2023/08/14 03:49:15;;;;;;;2.40;2.20;;;19.20;99.90;;;;;;5068983;28;20482;-70
2023/08/14 03:51:42;;;;;;;2.93;2.63;;;19.10;99.90;;;;;;5069006;28;20841;-70
2023/08/14 03:54:09;;;;;;;5.97;2.90;;;19.10;99.90;;;;;;5069857;28;20463;-70
2023/08/14 03:56:36;;;;;;;4.10;3.80;;;19.10;99.90;;;;;;5069622;28;20496;-70
2023/08/14 03:59:04;;;;;;;2.87;2.67;;;19.00;99.90;;;;;;5053863;28;20483;-70
2023/08/14 04:01:31;;;;;;;1.97;1.80;;;19.00;99.90;;;;;;5049665;28;20456;-70
2023/08/14 04:03:58;;;;;;;6.40;2.90;;;19.00;99.90;;;;;;5050116;28;20879;-69
2023/08/14 04:06:25;;;;;;;2.20;2.00;;;19.00;99.90;;;;;;5052029;28;20571;-70
2023/08/14 04:08:52;;;;;;;3.13;2.40;;;18.90;99.90;;;;;;5070049;28;20482;-70
2023/08/14 04:11:20;;;;;;;4.57;2.63;;;18.90;99.90;;;;;;5069837;28;20458;-70
2023/08/14 04:13:46;;;;;;;3.30;3.00;;;18.80;99.90;;;;;;5060248;28;20522;-68
2023/08/14 04:16:14;;;;;;;3.00;2.43;;;18.80;99.90;;;;;;5060691;28;20452;-69
2023/08/14 04:18:41;;;;;;;3.20;2.70;;;18.80;99.90;;;;;;5059645;28;20845;-69
2023/08/14 04:21:08;;;;;;;3.37;2.63;;;18.80;99.90;;;;;;5059408;28;20462;-69
2023/08/14 04:23:34;;;;;;;2.50;2.30;;;18.80;99.90;;;;;;5059661;28;20845;-69
2023/08/14 04:26:01;;;;;;;4.20;2.70;;;18.80;99.90;;;;;;5059822;28;20485;-68
2023/08/14 04:28:28;;;;;;;2.70;2.50;;;18.70;99.90;;;;;;5055837;28;20475;-70
2023/08/14 04:30:55;;;;;;;2.67;2.47;;;18.70;99.90;;;;;;5068697;28;20466;-68
2023/08/14 04:33:23;;;;;;;2.70;2.30;;;18.70;99.90;;;;;;5050604;28;20461;-68
2023/08/14 04:35:50;;;;;;;2.33;2.13;;;18.70;99.90;;;;;;5049621;28;20452;-68
2023/08/14 04:38:17;;;;;;;2.67;2.13;;;18.60;99.90;;;;;;5069500;28;20961;-69
2023/08/14 04:40:43;;;;;;;2.70;2.47;;;18.60;99.90;;;;;;5073113;28;20451;-68
2023/08/14 04:43:10;;;;;;;2.50;2.30;;;18.60;99.90;;;;;;5073513;28;20472;-68
2023/08/14 04:45:37;;;;;;;2.90;2.60;;;18.60;99.90;;;;;;5065093;28;20447;-69
2023/08/14 04:48:04;;;;;;;2.47;2.27;;;18.50;99.90;;;;;;5073332;28;20455;-69
2023/08/14 04:50:32;;;;;;;4.00;2.73;;;18.50;99.90;;;;;;5072720;28;20461;-69
2023/08/14 04:52:59;;;;;;;3.20;2.90;;;18.50;99.90;;;;;;5073338;28;20466;-69
2023/08/14 04:55:25;;;;;;;2.80;2.30;;;18.50;99.90;;;;;;5073657;28;20947;-69
2023/08/14 04:57:52;;;;;;;3.33;2.27;;;18.50;99.90;;;;;;5073825;28;20459;-70
2023/08/14 05:00:19;;;;;;;2.47;2.20;;;18.50;99.90;;;;;;5072667;28;20485;-69
2023/08/14 05:02:46;;;;;;;2.33;2.13;;;18.50;99.90;;;;;;5073121;28;20488;-70
2023/08/14 05:05:12;;;;;;;2.50;2.30;;;18.50;99.90;;;;;;5073254;28;20456;-69
2023/08/14 05:07:40;;;;;;;2.50;2.30;;;18.50;99.90;;;;;;5072737;28;20842;-69
2023/08/14 05:10:08;;;;;;;4.03;2.57;;;18.50;99.90;;;;;;5072722;28;20477;-68
2023/08/14 05:12:34;;;;;;;2.50;2.30;;;18.50;99.90;;;;;;5061501;28;20469;-70
2023/08/14 05:15:01;;;;;;;3.30;2.47;;;18.50;99.90;;;;;;5053093;28;20462;-69
2023/08/14 05:17:28;;;;;;;2.40;2.20;;;18.50;99.90;;;;;;5052481;28;20454;-68
2023/08/14 05:19:55;;;;;;;2.33;2.13;;;18.60;99.90;;;;;;5052705;28;20481;-69
2023/08/14 05:22:22;;;;;;;2.60;2.10;;;18.60;99.90;;;;;;5052663;28;20844;-69
2023/08/14 05:24:50;;;;;;;3.33;2.43;;;18.70;99.90;;;;;;5052857;28;20503;-69
2023/08/14 05:27:16;;;;;;;2.87;2.40;;;18.70;99.90;;;;;;5052367;28;20484;-68
2023/08/14 05:29:44;;;;;;;2.70;2.27;;;18.80;99.90;;;;;;5052104;28;20487;-69
2023/08/14 05:32:11;;;;;;;2.60;2.40;;;18.80;99.90;;;;;;5052693;28;20810;-69
2023/08/14 05:34:38;;;;;;;2.97;2.70;;;18.90;99.90;;;;;;5052351;28;20460;-69
2023/08/14 05:37:04;;;;;;;5.30;2.90;;;19.00;99.90;;;;;;5067421;28;20454;-69
2023/08/14 05:39:31;;;;;;;3.40;2.53;;;19.10;99.90;;;;;;5069795;28;20860;-69
2023/08/14 05:41:59;;;;;;;2.23;2.03;;;19.20;99.90;;;;;;5052461;28;20452;-69
2023/08/14 05:44:25;;;;;;;3.00;2.70;;;19.20;99.90;;;;;;5052157;28;20811;-69
2023/08/14 05:46:51;;;;;;;3.13;2.83;;;19.30;99.90;;;;;;5052214;28;20472;-68
2023/08/14 05:49:18;;;;;;;7.60;3.00;;;19.30;99.90;;;;;;5050608;28;20222;-69
2023/08/14 05:51:45;;;;;;;2.27;2.07;;;19.30;99.90;;;;;;5052249;28;20466;-70
2023/08/14 05:54:12;;;;;;;2.83;2.53;;;19.40;99.90;;;;;;5052077;28;20460;-69
2023/08/14 05:56:39;;;;;;;3.00;2.70;;;19.40;99.90;;;;;;5056704;28;20480;-70
2023/08/14 05:59:07;;;;;;;2.37;2.17;;;19.40;99.90;;;;;;5071849;28;20482;-68
2023/08/14 06:04:15;;;;;;;2.50;2.30;;;19.40;99.90;;;;;;5072904;22;20538;-69
2023/08/14 06:06:42;;;;;;;2.57;2.37;;;19.40;99.90;;;;;;5051582;28;20485;-69
2023/08/14 06:09:09;;;;;;;2.97;2.30;;;19.50;99.90;;;;;;5068595;28;20486;-69
2023/08/14 06:14:03;;;;;;;3.67;2.87;;;19.50;99.90;;;;;;5030232;28;20553;-69
2023/08/14 06:16:31;;;;;;;2.60;2.40;;;19.50;99.90;;;;;;5031325;28;20459;-69
2023/08/14 06:18:58;;;;;;;2.70;2.50;;;19.60;99.90;;;;;;5031156;28;20984;-69
2023/08/14 06:21:25;;;;;;;2.50;2.30;;;19.60;99.90;;;;;;5031424;28;20456;-67
2023/08/14 06:23:51;;;;;;;2.83;2.63;;;19.60;99.90;;;;;;5031154;28;20454;-68
2023/08/14 06:26:18;;;;;;;2.20;1.93;;;19.60;99.90;;;;;;5039351;28;21024;-69
2023/08/14 06:28:45;;;;;;;3.90;2.20;;;19.70;99.90;;;;;;5050908;28;20500;-68
2023/08/14 06:31:12;;;;;;;2.20;2.10;;;19.70;99.90;;;;;;5051338;28;20456;-68
2023/08/14 06:33:40;;;;;;;2.70;2.50;;;19.70;99.90;;;;;;5050865;28;20839;-69
2023/08/14 06:36:06;;;;;;;4.07;2.47;;;19.80;99.90;;;;;;5051059;28;20463;-68
2023/08/14 06:38:33;;;;;;;2.77;2.57;;;19.80;99.90;;;;;;5034587;28;20478;-68
2023/08/14 06:41:00;;;;;;;4.50;2.77;;;19.70;99.90;;;;;;5042986;28;20467;-69
2023/08/14 06:43:26;;;;;;;3.03;2.83;;;19.80;99.90;;;;;;5051403;28;20897;-68
2023/08/14 06:45:53;;;;;;;3.17;2.73;;;19.90;99.90;;;;;;5038907;28;20454;-69
2023/08/14 06:48:20;;;;;;;3.43;2.93;;;19.90;99.90;;;;;;5030995;28;21026;-68
2023/08/14 06:50:48;;;;;;;2.60;2.17;;;20.00;99.90;;;;;;5030865;28;20875;-68
2023/08/14 06:53:14;;;;;;;4.73;2.67;;;20.10;99.90;;;;;;5031353;28;20465;-69
2023/08/14 06:55:46;;;;;;;3.20;2.63;;;20.20;99.90;;;;;;5030794;28;20470;-68
2023/08/14 06:58:13;;;;;;;3.20;2.90;;;20.20;99.90;;;;;;5031037;28;20830;-68
2023/08/14 07:00:40;;;;;;;2.40;2.20;;;20.20;99.90;;;;;;5030136;28;20486;-69
2023/08/14 07:03:06;;;;;;;2.43;2.23;;;20.30;99.90;;;;;;5045201;28;20465;-69
2023/08/14 07:05:33;;;;;;;4.27;3.00;;;20.30;99.90;;;;;;5050802;28;20463;-69
2023/08/14 07:08:01;;;;;;;4.07;2.50;;;20.50;99.90;;;;;;5050119;28;20486;-69
2023/08/14 07:10:28;;;;;;;3.10;2.43;;;20.60;99.90;;;;;;5041858;28;20461;-68
2023/08/14 07:16:10;;;;;;;3.50;2.60;;;20.70;99.90;;;;;;4370715;26;20479;-95
2023/08/14 07:18:37;;;;;;;4.57;2.20;;;20.90;99.90;;;;;;5045802;28;20598;-92
2023/08/14 07:21:04;;;;;;;2.70;2.50;;;21.00;99.90;;;;;;5047621;28;20764;-93
2023/08/14 07:23:33;;;;;;;2.40;2.10;;;21.00;99.90;;;;;;5047434;28;20885;-94
2023/08/14 07:26:03;;;;;;;9.00;3.53;;;21.10;99.90;;;;;;5051832;28;20494;-92
2023/08/14 07:28:31;;;;;;;3.40;2.43;;;21.20;99.90;;;;;;5050306;28;20495;-94
2023/08/14 07:31:00;;;;;;;3.00;2.70;;;21.30;99.90;;;;;;5049599;28;20547;-93
2023/08/14 07:33:26;;;;;;;2.70;2.33;;;21.40;99.90;;;;;;5051493;28;20533;-92
2023/08/14 07:35:54;;;;;;;2.77;2.53;;;21.50;99.90;;;;;;5039127;28;20523;-92
2023/08/14 07:38:43;;;;;;;2.50;2.30;;;21.50;99.90;;;;;;5042748;28;20460;-93
2023/08/14 07:41:10;;;;;;;2.10;1.90;;;21.60;99.90;;;;;;5045301;28;20518;-94
2023/08/14 07:43:37;;;;;;;2.97;2.10;;;21.70;99.90;;;;;;5045269;28;20498;-93
2023/08/14 07:46:04;;;;;;;1.93;1.80;;;21.80;99.90;;;;;;5042630;28;20512;-93
2023/08/14 07:48:31;;;;;;;2.77;2.17;;;21.90;99.90;;;;;;5041694;28;20528;-93
2023/08/14 07:50:58;;;;;;;2.60;2.37;;;22.00;99.90;;;;;;5042325;28;20536;-93
2023/08/14 07:53:24;;;;;;;3.10;2.43;;;22.20;99.90;;;;;;5035203;28;20508;-93
2023/08/14 07:55:53;;;;;;;2.50;2.30;;;22.20;99.90;;;;;;5027909;28;20568;-92
2023/08/14 07:58:19;;;;;;;2.27;2.07;;;22.30;99.90;;;;;;5018257;28;20456;-92
2023/08/14 08:00:46;;;;;;;3.87;2.20;;;22.50;99.90;;;;;;5018727;28;20457;-93
2023/08/14 08:03:13;;;;;;;3.23;2.40;;;22.60;99.90;;;;;;5018704;28;20481;-93
2023/08/14 08:05:40;;;;;;;2.50;2.30;;;22.70;99.90;;;;;;5018557;28;20522;-93
2023/08/14 08:08:10;;;;;;;2.30;2.20;;;22.70;99.90;;;;;;5021122;28;20487;-94
2023/08/14 08:10:38;;;;;;;2.43;2.23;;;22.90;99.90;;;;;;5032962;28;20493;-96
2023/08/14 08:13:09;;;;;;;2.00;1.87;;;23.00;99.90;;;;;;5034600;28;20511;-95
2023/08/14 08:15:39;;;;;;;2.40;2.20;;;23.00;99.90;;;;;;5038649;28;20479;-95
2023/08/14 08:18:06;;;;;;;2.30;1.83;;;23.10;99.90;;;;;;5024511;28;20945;-92
2023/08/14 08:20:36;;;;;;;2.30;2.10;;;23.20;99.90;;;;;;5043922;28;20461;-95
2023/08/14 08:23:05;;;;;;;2.20;2.10;;;23.30;99.90;;;;;;5050566;28;20594;-92
2023/08/14 08:25:32;;;;;;;2.40;2.20;;;23.30;99.90;;;;;;5043545;28;20904;-93
2023/08/14 08:27:59;;;;;;;2.40;2.20;;;23.40;99.90;;;;;;5042498;28;20481;-91
2023/08/14 08:30:27;;;;;;;2.70;2.30;;;23.50;99.90;;;;;;5041934;28;20467;-92
2023/08/14 08:32:54;;;;;;;2.43;2.23;;;23.60;99.90;;;;;;5040464;28;20740;-92
2023/08/14 08:35:21;;;;;;;2.60;2.37;;;23.70;99.90;;;;;;5040773;28;20461;-93
2023/08/14 08:37:47;;;;;;;2.40;2.20;;;23.90;99.90;;;;;;5039314;28;20478;-92
2023/08/14 08:40:14;;;;;;;2.87;2.60;;;23.90;99.90;;;;;;5052822;28;20459;-92
2023/08/14 08:42:55;;;;;;;2.40;2.20;;;24.10;99.90;;;;;;5056558;28;20437;-95
2023/08/14 08:45:27;;;;;;;3.13;2.83;;;24.20;99.90;;;;;;5060250;28;20436;-96
2023/08/14 08:48:12;;;;;;;2.77;2.53;;;24.40;99.90;;;;;;5059780;28;20471;-95
2023/08/14 08:50:39;;;;;;;2.50;2.30;;;24.50;99.90;;;;;;5059007;28;20448;-96
2023/08/14 08:53:06;;;;;;;3.40;2.40;;;24.60;99.90;;;;;;5041751;28;20582;-93
2023/08/14 08:55:33;;;;;;;2.67;2.47;;;24.80;99.90;;;;;;5038479;28;20471;-93
2023/08/14 08:58:02;;;;;;;3.20;2.50;;;24.90;99.90;;;;;;5037648;28;20464;-92
2023/08/14 09:00:29;;;;;;;2.80;2.60;;;24.90;99.90;;;;;;5038445;28;20534;-92
2023/08/14 09:02:55;;;;;;;2.90;2.70;;;25.10;99.90;;;;;;5036369;28;20463;-92
2023/08/14 09:05:24;;;;;;;3.83;2.60;;;25.20;99.90;;;;;;5035832;28;20547;-92
2023/08/14 09:07:51;;;;;;;2.37;2.17;;;25.30;99.90;;;;;;5036476;28;20487;-92
2023/08/14 09:10:36;;;;;;;2.90;2.60;;;25.40;99.90;;;;;;5038216;28;20456;-92
2023/08/14 09:13:05;;;;;;;2.60;2.40;;;25.60;99.90;;;;;;5037457;28;20483;-92
2023/08/14 09:15:32;;;;;;;2.60;2.40;;;25.70;99.90;;;;;;5037510;28;20465;-92
2023/08/14 09:17:59;;;;;;;3.37;2.80;;;25.80;99.90;;;;;;5037898;28;20457;-92
2023/08/14 09:20:27;;;;;;;2.60;2.40;;;25.90;99.90;;;;;;5038736;28;20453;-92
2023/08/14 09:22:57;;;;;;;5.57;2.80;;;26.10;99.90;;;;;;5037879;28;20470;-93
2023/08/14 09:25:24;;;;;;;2.87;2.50;;;26.30;99.90;;;;;;5039170;28;20810;-93
2023/08/14 09:27:50;;;;;;;2.70;2.50;;;26.40;99.90;;;;;;5038986;28;20523;-92
2023/08/14 09:30:19;;;;;;;3.23;2.63;;;26.40;99.90;;;;;;5038451;28;20465;-92
2023/08/14 09:32:45;;;;;;;3.50;2.73;;;26.50;99.90;;;;;;5038949;28;20456;-92
2023/08/14 09:35:12;;;;;;;2.80;2.60;;;26.70;99.90;;;;;;5039448;28;20461;-92
2023/08/14 09:37:40;;;;;;;2.87;2.60;;;26.80;99.90;;;;;;5038411;28;20449;-92
2023/08/14 09:40:14;;;;;;;3.00;2.40;;;26.90;99.90;;;;;;5038464;28;20971;-92
2023/08/14 09:42:43;;;;;;;3.20;3.00;;;27.00;99.90;;;;;;5039397;28;20469;-92
2023/08/14 09:45:11;;;;;;;3.30;3.00;;;27.10;99.90;;;;;;5039762;28;20457;-93
2023/08/14 09:47:38;;;;;;;2.87;2.67;;;27.10;99.90;;;;;;5039291;28;20484;-93
2023/08/14 09:50:07;;;;;;;3.13;2.50;;;27.10;99.90;;;;;;5038487;28;20491;-92
2023/08/14 09:52:34;;;;;;;3.10;2.90;;;27.10;99.90;;;;;;5038638;28;20958;-92
2023/08/14 09:55:03;;;;;;;2.90;2.70;;;27.20;99.90;;;;;;5037819;28;20476;-92
2023/08/14 09:57:30;;;;;;;3.00;2.70;;;27.30;99.90;;;;;;5039598;28;20459;-92
2023/08/14 09:59:57;;;;;;;3.20;2.90;;;27.40;99.90;;;;;;5038250;28;20468;-93
2023/08/14 10:02:25;;;;;;;3.23;2.93;;;27.50;99.90;;;;;;5039721;28;20468;-92
2023/08/14 10:04:53;;;;;;;3.10;2.90;;;27.70;99.90;;;;;;5038798;28;20496;-92
2023/08/14 10:07:21;;;;;;;4.73;2.93;;;27.80;99.90;;;;;;5038019;28;20460;-92
2023/08/14 10:09:51;;;;;;;3.97;3.03;;;27.90;99.90;;;;;;5037947;28;20457;-92
2023/08/14 10:12:22;;;;;;;3.30;2.60;;;28.10;99.90;;;;;;5038248;28;20456;-92
2023/08/14 10:15:01;;;;;;;3.37;2.90;;;28.20;99.90;;;;;;5038166;28;20507;-93
2023/08/14 10:17:33;;;;;;;3.20;2.90;;;28.40;99.90;;;;;;5038419;28;20460;-91
2023/08/14 10:20:03;;;;;;;3.10;2.90;;;28.40;99.90;;;;;;5037794;28;20437;-92
2023/08/14 10:22:33;;;;;;;2.57;2.37;;;28.40;99.90;;;;;;5038304;28;20456;-92
2023/08/14 10:25:04;;;;;;;3.00;2.73;;;28.30;99.90;;;;;;5039235;28;20502;-92
2023/08/14 10:27:35;;;;;;;3.10;2.90;;;28.30;99.90;;;;;;5039494;28;20475;-93
2023/08/14 10:30:02;;;;;;;3.07;2.87;;;28.30;99.90;;;;;;5040539;28;20453;-93
2023/08/14 10:32:29;;;;;;;3.23;2.93;;;28.40;99.90;;;;;;5056927;28;20471;-92
2023/08/14 10:34:57;;;;;;;4.60;2.67;;;28.60;99.90;;;;;;5042249;28;21002;-93
2023/08/14 10:37:28;;;;;;;3.23;2.93;;;28.70;99.90;;;;;;5038620;28;20456;-92
2023/08/14 10:40:12;;;;;;;4.50;2.93;;;28.80;99.90;;;;;;5037449;28;21000;-93
2023/08/14 10:42:44;;;;;;;3.77;2.97;;;28.90;99.90;;;;;;5039284;28;20555;-93
2023/08/14 10:45:11;;;;;;;3.07;2.87;;;29.00;99.90;;;;;;5043132;28;20460;-93
2023/08/14 10:47:39;;;;;;;3.07;2.60;;;29.10;99.90;;;;;;5044969;28;20483;-93
2023/08/14 10:50:18;;;;;;;3.13;2.83;;;29.10;99.90;;;;;;5045342;28;20465;-93
2023/08/14 10:52:47;;;;;;;4.60;3.20;;;29.10;99.90;;;;;;5046058;28;20441;-94
2023/08/14 10:55:18;;;;;;;3.30;3.00;;;29.00;99.90;;;;;;5056622;28;20433;-94
2023/08/14 10:57:49;;;;;;;2.97;2.70;;;29.00;99.90;;;;;;5047242;28;20438;-92
2023/08/14 11:00:21;;;;;;;3.70;2.80;;;29.00;99.90;;;;;;5037656;28;20463;-93
2023/08/14 11:02:54;;;;;;;3.07;2.80;;;28.90;99.90;;;;;;5037905;28;20456;-92
2023/08/14 11:05:21;;;;;;;3.20;2.90;;;28.80;99.90;;;;;;5037561;28;20456;-93
2023/08/14 11:07:58;;;;;;;3.30;3.10;;;28.70;99.90;;;;;;5037746;28;20491;-93
2023/08/14 11:10:26;;;;;;;3.43;3.13;;;28.80;99.90;;;;;;5041803;28;20464;-93
2023/08/14 11:12:57;;;;;;;3.10;2.90;;;28.90;99.90;;;;;;5041744;28;20460;-93
2023/08/14 11:15:23;;;;;;;3.20;2.90;;;28.90;99.90;;;;;;5042403;28;20470;-93
2023/08/14 11:17:50;;;;;;;2.90;2.70;;;28.90;99.90;;;;;;5041799;28;20452;-93
2023/08/14 11:20:17;;;;;;;2.93;2.73;;;29.00;99.90;;;;;;5041463;28;20464;-93
2023/08/14 11:22:45;;;;;;;2.87;2.60;;;29.00;99.90;;;;;;5041815;28;20548;-92
2023/08/14 11:25:15;;;;;;;3.37;2.40;;;29.00;99.90;;;;;;5041539;28;20461;-93
2023/08/14 11:27:42;;;;;;;3.77;2.93;;;29.00;99.90;;;;;;5040853;28;20476;-93
2023/08/14 11:30:11;;;;;;;4.20;2.63;;;28.90;99.90;;;;;;5041340;28;20503;-93
2023/08/14 11:32:38;;;;;;;2.83;2.63;;;29.20;99.90;;;;;;5041130;28;20492;-93
2023/08/14 11:35:07;;;;;;;3.40;3.13;;;29.40;99.90;;;;;;5041317;28;20479;-94
2023/08/14 11:37:33;;;;;;;4.30;3.90;;;29.50;99.90;;;;;;5042022;28;20461;-93
2023/08/14 11:40:05;;;;;;;3.50;3.20;;;29.50;99.90;;;;;;5042053;28;20468;-93
2023/08/14 11:42:33;;;;;;;3.17;2.97;;;29.70;99.90;;;;;;5042129;28;20494;-93
2023/08/14 11:45:03;;;;;;;3.67;3.37;;;29.80;99.90;;;;;;5041068;28;20504;-93
2023/08/14 11:47:33;;;;;;;3.77;3.20;;;29.90;99.90;;;;;;5041537;28;20448;-93
2023/08/14 11:50:01;;;;;;;3.33;2.50;;;29.90;99.90;;;;;;5040861;28;20485;-93
2023/08/14 11:52:29;;;;;;;2.90;2.70;;;30.00;99.90;;;;;;5041445;28;20977;-93
2023/08/14 11:54:56;;;;;;;3.60;3.27;;;29.90;99.90;;;;;;5042108;28;20567;-93
2023/08/14 11:57:24;;;;;;;3.50;3.20;;;30.00;99.90;;;;;;5041743;28;20472;-93
2023/08/14 11:59:51;;;;;;;4.57;3.23;;;29.90;99.90;;;;;;5037878;28;20452;-92
2023/08/14 12:02:19;;;;;;;4.30;2.60;;;29.80;99.90;;;;;;5040538;28;20456;-94
2023/08/14 12:04:52;;;;;;;3.47;3.17;;;29.80;99.90;;;;;;5047318;28;20495;-93
2023/08/14 12:07:20;;;;;;;2.73;2.50;;;29.60;99.90;;;;;;5050476;28;20455;-93
2023/08/14 12:09:48;;;;;;;2.93;2.73;;;29.50;99.90;;;;;;5040347;28;20507;-93
2023/08/14 12:12:17;;;;;;;3.20;2.90;;;29.30;99.90;;;;;;5036734;28;20469;-93
2023/08/14 12:14:47;;;;;;;3.87;3.50;;;29.20;99.90;;;;;;5038503;28;20495;-93
2023/08/14 12:17:15;;;;;;;3.23;2.97;;;29.00;99.90;;;;;;5036520;28;20496;-92
2023/08/14 12:19:43;;;;;;;3.50;3.00;;;28.90;99.90;;;;;;5041943;28;20437;-94
2023/08/14 12:22:11;;;;;;;3.27;2.97;;;28.80;99.90;;;;;;5050863;28;20463;-92
2023/08/14 12:24:40;;;;;;;3.43;3.17;;;28.60;99.90;;;;;;5056737;28;20481;-93
2023/08/14 12:27:15;;;;;;;5.03;3.73;;;28.50;99.90;;;;;;5055526;28;20504;-94
2023/08/14 12:29:42;;;;;;;3.20;3.00;;;28.40;99.90;;;;;;5055842;28;20452;-94
2023/08/14 12:32:09;;;;;;;3.40;3.10;;;28.30;99.90;;;;;;5055788;28;20452;-94
2023/08/14 12:34:35;;;;;;;4.23;3.80;;;28.10;99.90;;;;;;5054845;28;20456;-93
2023/08/14 12:37:03;;;;;;;5.50;3.20;;;28.10;99.90;;;;;;5051895;28;20463;-93
2023/08/14 12:39:32;;;;;;;4.17;3.23;;;28.00;99.90;;;;;;5056734;28;20464;-93
2023/08/14 12:42:01;;;;;;;3.63;2.97;;;27.90;99.90;;;;;;5055981;28;20484;-93
2023/08/14 12:44:28;;;;;;;3.50;3.20;;;27.70;99.90;;;;;;5056482;28;20480;-93
2023/08/14 12:46:56;;;;;;;3.40;3.00;;;27.50;99.90;;;;;;5052045;28;20472;-93
2023/08/14 12:49:23;;;;;;;3.50;3.10;;;27.30;99.90;;;;;;5054361;28;20483;-95
2023/08/14 12:51:52;;;;;;;3.10;2.90;;;27.10;99.90;;;;;;5055577;28;20547;-94
2023/08/14 12:54:20;;;;;;;3.80;2.73;;;26.90;99.90;;;;;;5070201;28;20555;-94
2023/08/14 12:56:48;;;;;;;4.60;3.10;;;26.80;99.90;;;;;;5072845;28;20456;-94
2023/08/14 12:59:15;;;;;;;3.40;3.10;;;26.80;99.90;;;;;;5076840;28;20455;-93
2023/08/14 13:01:42;;;;;;;3.40;3.10;;;26.70;99.90;;;;;;5080190;28;20450;-93